METAR Data
IDs: Format: Raw Decoded Include TAF

Data at: 0919 UTC 13 Aug 2022

LRAR 130900Z 15007KT CAVOK 26/13 Q1012